Salt Lake City, Utah
Traffic Map
Current Weather Conditions
Salt Lake City, Utah
Clear
Clear

Feels Like: 5°
Wind Chill: Ceiling: Unl
Heat Index: Visibility: 10mi
Dew Point: Wind: 0mph
Humidity: 76% Direction: ° ()
Pressure: 30.12in Gusts: 0mph
Raw Report DataKSLC 220953Z 00000KT 10SM CLR 05/01 A3012 RMK AO2 SLP180 T00500011
Traffic Incident Summary
Active as of:
Severity:
Category:
InformationThere was an issue retrieving the traffic information for this location. Please try a different location or try again shortly.
Advertisements
Track Severe Weather on mobile